Time;durP1;ratioP1;P1;durP2;ratioP2;P2;SDS_P1;SDS_P2;PMS_P1;PMS_P2;Temp;Humidity;BMP_temperature;BMP_pressure;BME280_temperature;BME280_humidity;BME280_pressure;Samples;Min_cycle;Max_cycle;Signal;HPM_P1;HPM_P2
2022/10/19 00:02:08;;;;;;;8.77;1.77;;;10.10;99.90;;;;;;6123480;23;20026;-67
2022/10/19 00:04:33;;;;;;;9.60;2.35;;;10.10;99.90;;;;;;6148829;23;20345;-67
2022/10/19 00:06:59;;;;;;;8.30;1.75;;;10.10;99.90;;;;;;6150104;23;20021;-67
2022/10/19 00:09:24;;;;;;;10.48;2.58;;;10.10;99.90;;;;;;6148542;23;20522;-68
2022/10/19 00:11:50;;;;;;;5.55;1.38;;;10.00;99.90;;;;;;6144072;23;20025;-68
2022/10/19 00:14:22;;;;;;;10.73;1.73;;;10.10;99.90;;;;;;6148151;23;20026;-68
2022/10/19 00:16:50;;;;;;;8.40;1.88;;;10.10;99.90;;;;;;6146065;23;20222;-66
2022/10/19 00:19:25;;;;;;;5.38;1.23;;;10.10;99.90;;;;;;6120561;23;20025;-68
2022/10/19 00:21:51;;;;;;;5.90;1.45;;;10.10;99.90;;;;;;6148561;23;20022;-68
2022/10/19 00:24:17;;;;;;;7.28;1.73;;;10.20;99.90;;;;;;6122984;23;20409;-68
2022/10/19 00:26:43;;;;;;;9.90;2.83;;;10.20;99.90;;;;;;6148729;23;20013;-68
2022/10/19 00:29:11;;;;;;;6.13;1.35;;;10.30;99.90;;;;;;6122581;23;20021;-68
2022/10/19 00:31:37;;;;;;;8.15;1.60;;;10.30;99.90;;;;;;6143105;23;20397;-69
2022/10/19 00:34:03;;;;;;;5.72;1.73;;;10.20;99.90;;;;;;6144732;23;20049;-69
2022/10/19 00:36:34;;;;;;;9.02;2.25;;;10.30;99.90;;;;;;6146744;23;20104;-69
2022/10/19 00:39:01;;;;;;;5.95;1.80;;;10.30;99.90;;;;;;6149187;23;20072;-68
2022/10/19 00:41:30;;;;;;;5.80;1.77;;;10.30;99.90;;;;;;6147158;23;20035;-67
2022/10/19 00:44:05;;;;;;;7.63;1.70;;;10.30;99.90;;;;;;6146954;23;20081;-68
2022/10/19 00:46:34;;;;;;;6.35;1.70;;;10.40;99.90;;;;;;6120984;23;20136;-68
2022/10/19 00:49:03;;;;;;;6.65;2.13;;;10.30;99.90;;;;;;6146799;23;20025;-68
2022/10/19 00:51:32;;;;;;;6.45;1.63;;;10.40;99.90;;;;;;6147215;23;20325;-67
2022/10/19 00:53:59;;;;;;;6.53;1.50;;;10.40;99.90;;;;;;6122671;23;20125;-68
2022/10/19 00:56:25;;;;;;;6.20;1.77;;;10.40;99.90;;;;;;6148052;23;20085;-68
2022/10/19 00:58:51;;;;;;;7.68;1.50;;;10.40;99.90;;;;;;6147597;23;20809;-66
2022/10/19 01:01:20;;;;;;;7.10;2.00;;;10.40;99.90;;;;;;6144756;23;20379;-66
2022/10/19 01:03:46;;;;;;;6.03;1.77;;;10.40;99.90;;;;;;6122546;23;20017;-67
2022/10/19 01:06:15;;;;;;;10.48;1.55;;;10.40;99.90;;;;;;6122004;23;20021;-68
2022/10/19 01:08:41;;;;;;;6.82;1.75;;;10.40;99.90;;;;;;6148127;23;20056;-67
2022/10/19 01:11:44;;;;;;;7.22;2.50;;;10.30;99.90;;;;;;6120190;23;20048;-68
2022/10/19 01:14:47;;;;;;;4.35;1.70;;;10.40;99.90;;;;;;6148073;23;20113;-67
2022/10/19 01:17:31;;;;;;;6.68;1.58;;;10.40;99.90;;;;;;6144083;23;20022;-67
2022/10/19 01:20:12;;;;;;;;;;;10.40;99.90;;;;;;6144314;23;20018;-68
2022/10/19 01:22:55;;;;;;;7.18;2.30;;;10.40;99.90;;;;;;6119920;23;19994;-67
2022/10/19 01:25:32;;;;;;;8.30;1.80;;;10.40;99.90;;;;;;6147114;23;20038;-68
2022/10/19 01:28:02;;;;;;;8.25;2.10;;;10.50;99.90;;;;;;6148915;23;20026;-68
2022/10/19 01:30:38;;;;;;;11.63;1.83;;;10.50;99.90;;;;;;6119941;23;20028;-68
2022/10/19 01:33:30;;;;;;;9.50;1.70;;;10.50;99.90;;;;;;6147906;23;20041;-69
2022/10/19 01:36:24;;;;;;;6.72;1.80;;;10.50;99.90;;;;;;6147913;23;20018;-68
2022/10/19 01:39:10;;;;;;;10.43;1.58;;;10.50;99.90;;;;;;6149290;23;20060;-68
2022/10/19 01:41:39;;;;;;;9.48;1.67;;;10.60;99.90;;;;;;6120232;23;20462;-67
2022/10/19 01:44:17;;;;;;;7.95;2.03;;;10.60;99.90;;;;;;6145838;23;20148;-69
2022/10/19 01:46:49;;;;;;;12.52;2.10;;;10.60;99.90;;;;;;6147290;23;20388;-69
2022/10/19 01:49:40;;;;;;;9.07;1.83;;;10.70;99.90;;;;;;6120469;23;20017;-69
2022/10/19 01:52:10;;;;;;;9.00;1.45;;;10.70;99.90;;;;;;6121103;23;20048;-68
2022/10/19 01:54:41;;;;;;;7.32;1.83;;;10.70;99.90;;;;;;6147029;23;20100;-68
2022/10/19 01:57:11;;;;;;;8.45;1.40;;;10.80;99.90;;;;;;6146728;23;20025;-69
2022/10/19 01:59:38;;;;;;;9.80;1.52;;;10.70;99.90;;;;;;6146882;23;20040;-68
2022/10/19 02:02:08;;;;;;;10.93;2.75;;;10.80;99.90;;;;;;6144688;23;20030;-68
2022/10/19 02:04:35;;;;;;;5.47;1.42;;;10.80;99.90;;;;;;6144994;23;20017;-68
2022/10/19 02:07:03;;;;;;;11.48;1.60;;;10.80;99.90;;;;;;6120677;23;20047;-71
2022/10/19 02:09:29;;;;;;;7.85;1.40;;;10.70;99.90;;;;;;6119164;23;20124;-68
2022/10/19 02:11:59;;;;;;;10.35;1.48;;;10.80;99.90;;;;;;6146453;23;20049;-68
2022/10/19 02:14:29;;;;;;;9.10;1.65;;;10.80;99.90;;;;;;6150538;23;20550;-68
2022/10/19 02:17:08;;;;;;;8.13;1.65;;;10.80;99.90;;;;;;6147434;23;20101;-68
2022/10/19 02:19:34;;;;;;;10.40;1.83;;;10.80;99.90;;;;;;6146795;23;20048;-68
2022/10/19 02:22:00;;;;;;;6.57;1.40;;;10.70;99.90;;;;;;6118918;23;20124;-68
2022/10/19 02:24:25;;;;;;;12.70;2.00;;;10.70;99.90;;;;;;6122085;23;20056;-68
2022/10/19 02:26:52;;;;;;;7.80;1.98;;;10.70;99.90;;;;;;6120897;23;20529;-69
2022/10/19 02:29:18;;;;;;;9.50;1.40;;;10.70;99.90;;;;;;6150392;23;20022;-68
2022/10/19 02:31:44;;;;;;;11.82;2.38;;;10.70;99.90;;;;;;6147990;23;20418;-68
2022/10/19 02:34:10;;;;;;;8.23;1.40;;;10.70;99.90;;;;;;6121008;23;20013;-67
2022/10/19 02:36:36;;;;;;;12.82;1.67;;;10.70;99.90;;;;;;6123470;23;20390;-68
2022/10/19 02:39:02;;;;;;;9.48;1.27;;;10.70;99.90;;;;;;6149238;23;20028;-69
2022/10/19 02:41:47;;;;;;;11.70;1.50;;;10.70;99.90;;;;;;6123382;23;20077;-69
2022/10/19 02:44:21;;;;;;;6.25;1.40;;;10.60;99.90;;;;;;6149762;23;20029;-68
2022/10/19 02:47:13;;;;;;;5.43;1.48;;;10.70;99.90;;;;;;6140649;23;20018;-68
2022/10/19 02:49:40;;;;;;;7.80;2.25;;;10.60;99.90;;;;;;6146953;23;20025;-68
2022/10/19 02:52:09;;;;;;;9.73;1.40;;;10.70;99.90;;;;;;6150299;23;20022;-69
2022/10/19 02:54:35;;;;;;;9.00;1.35;;;10.70;99.90;;;;;;6150041;23;20480;-68
2022/10/19 02:57:14;;;;;;;10.38;1.60;;;10.70;99.90;;;;;;6149519;23;20469;-71
2022/10/19 02:59:40;;;;;;;5.47;1.42;;;10.70;99.90;;;;;;6149024;23;20466;-68
2022/10/19 03:02:06;;;;;;;10.80;1.58;;;10.80;99.90;;;;;;6139968;23;20026;-69
2022/10/19 03:04:31;;;;;;;11.60;2.15;;;10.80;99.90;;;;;;6119609;23;20021;-68
2022/10/19 03:06:57;;;;;;;10.23;1.70;;;10.80;99.90;;;;;;6151356;23;20021;-68
2022/10/19 03:09:23;;;;;;;10.82;1.60;;;10.80;99.90;;;;;;6123098;23;20014;-67
2022/10/19 03:11:48;;;;;;;11.05;1.70;;;10.80;99.90;;;;;;6117474;23;20026;-67
2022/10/19 03:14:14;;;;;;;8.93;1.23;;;10.80;99.90;;;;;;6121160;23;20039;-68
2022/10/19 03:16:40;;;;;;;7.40;1.30;;;10.80;99.90;;;;;;6116805;23;20029;-69
2022/10/19 03:19:05;;;;;;;9.68;1.50;;;10.80;99.90;;;;;;6143521;23;20029;-69
2022/10/19 03:21:33;;;;;;;11.32;1.60;;;10.80;99.90;;;;;;6149554;23;20029;-68
2022/10/19 03:23:59;;;;;;;9.63;1.65;;;10.80;99.90;;;;;;6150980;23;20111;-68
2022/10/19 03:26:25;;;;;;;10.75;2.17;;;10.80;99.90;;;;;;6149939;23;20420;-68
2022/10/19 03:28:51;;;;;;;11.45;1.45;;;10.80;99.90;;;;;;6148220;23;20366;-68
2022/10/19 03:31:17;;;;;;;12.23;1.75;;;10.70;99.90;;;;;;6121601;23;20567;-68
2022/10/19 03:33:43;;;;;;;8.95;1.65;;;10.70;99.90;;;;;;6124463;23;20395;-67
2022/10/19 03:36:16;;;;;;;11.45;2.00;;;10.70;99.90;;;;;;6140112;23;20029;-68
2022/10/19 03:38:42;;;;;;;;;;;10.60;99.90;;;;;;6148559;23;20100;-68
2022/10/19 03:41:08;;;;;;;6.53;1.50;;;10.60;99.90;;;;;;6149593;23;19948;-69
2022/10/19 03:43:34;;;;;;;8.80;1.55;;;10.60;99.90;;;;;;6122940;23;20068;-68
2022/10/19 03:45:59;;;;;;;10.38;1.38;;;10.60;99.90;;;;;;6119901;23;20093;-69
2022/10/19 03:48:25;;;;;;;7.28;1.63;;;10.60;99.90;;;;;;6119376;23;20946;-68
2022/10/19 03:51:03;;;;;;;9.82;1.40;;;10.60;99.90;;;;;;6118566;23;20237;-68
2022/10/19 03:53:30;;;;;;;6.45;1.52;;;10.60;99.90;;;;;;6146147;23;20076;-69
2022/10/19 03:56:06;;;;;;;6.32;1.23;;;10.60;99.90;;;;;;6149686;23;20049;-69
2022/10/19 03:58:35;;;;;;;10.20;1.65;;;10.50;99.90;;;;;;6114226;23;20024;-68
2022/10/19 04:01:05;;;;;;;10.82;2.03;;;10.60;99.90;;;;;;6141033;23;20100;-71
2022/10/19 04:03:31;;;;;;;7.35;2.00;;;10.50;99.90;;;;;;6149885;23;20017;-68
2022/10/19 04:06:06;;;;;;;7.38;1.40;;;10.60;99.90;;;;;;6149462;23;20026;-68
2022/10/19 04:08:32;;;;;;;12.63;2.17;;;10.60;99.90;;;;;;6149606;23;20106;-69
2022/10/19 04:10:59;;;;;;;10.30;1.58;;;10.60;99.90;;;;;;6147192;23;20061;-68
2022/10/19 04:13:26;;;;;;;8.32;1.60;;;10.60;99.90;;;;;;6123895;23;20072;-69
2022/10/19 04:15:51;;;;;;;10.43;1.50;;;10.70;99.90;;;;;;6148065;23;20108;-69
2022/10/19 04:18:17;;;;;;;9.90;2.20;;;10.70;99.90;;;;;;6148462;23;20025;-69
2022/10/19 04:20:42;;;;;;;10.65;1.73;;;10.70;99.90;;;;;;6147718;23;20017;-66
2022/10/19 04:23:08;;;;;;;13.43;2.00;;;10.70;99.90;;;;;;6122528;23;20025;-68
2022/10/19 04:25:34;;;;;;;10.05;2.22;;;10.80;99.90;;;;;;6149060;23;20064;-69
2022/10/19 04:28:00;;;;;;;8.15;1.75;;;10.70;99.90;;;;;;6148481;23;20025;-68
2022/10/19 04:30:25;;;;;;;9.88;1.65;;;10.80;99.90;;;;;;6146977;23;20348;-68
2022/10/19 04:32:51;;;;;;;16.73;2.00;;;10.80;99.90;;;;;;6122249;23;20509;-68
2022/10/19 04:35:17;;;;;;;8.25;1.90;;;10.70;99.90;;;;;;6148904;23;20033;-69
2022/10/19 04:37:42;;;;;;;13.75;1.92;;;10.60;99.90;;;;;;6149333;23;20084;-67
2022/10/19 04:40:09;;;;;;;10.82;2.13;;;10.60;99.90;;;;;;6146771;23;20419;-68
2022/10/19 04:42:34;;;;;;;10.60;1.83;;;10.60;99.90;;;;;;6122901;23;20041;-67
2022/10/19 04:45:00;;;;;;;9.85;1.98;;;10.50;99.90;;;;;;6120539;23;20022;-68
2022/10/19 04:47:28;;;;;;;15.20;2.78;;;10.40;99.90;;;;;;6120772;23;20100;-68
2022/10/19 04:49:54;;;;;;;8.07;1.63;;;10.40;99.90;;;;;;6123026;23;20025;-68
2022/10/19 04:52:20;;;;;;;12.75;2.42;;;10.30;99.90;;;;;;6148005;23;20036;-69
2022/10/19 04:54:46;;;;;;;8.23;2.05;;;10.30;99.90;;;;;;6145712;23;20017;-68
2022/10/19 04:57:12;;;;;;;13.27;2.22;;;10.30;99.90;;;;;;6146191;23;20053;-69
2022/10/19 04:59:37;;;;;;;10.80;2.33;;;10.20;99.90;;;;;;6119749;23;20044;-68
2022/10/19 05:02:03;;;;;;;15.13;2.28;;;10.20;99.90;;;;;;6147241;23;20029;-68
2022/10/19 05:04:29;;;;;;;14.40;1.88;;;10.10;99.90;;;;;;6149499;23;20025;-68
2022/10/19 05:06:54;;;;;;;12.15;2.33;;;10.10;99.90;;;;;;6148351;23;20454;-68
2022/10/19 05:09:20;;;;;;;14.45;2.30;;;10.10;99.90;;;;;;6144934;23;20029;-68
2022/10/19 05:11:49;;;;;;;14.18;2.28;;;10.00;99.90;;;;;;6149206;23;20350;-68
2022/10/19 05:14:15;;;;;;;11.65;1.73;;;10.00;99.90;;;;;;6118563;23;20440;-68
2022/10/19 05:16:40;;;;;;;12.48;2.22;;;10.00;99.90;;;;;;6121796;23;20013;-68
2022/10/19 05:19:06;;;;;;;19.08;2.05;;;10.00;99.90;;;;;;6122047;23;20021;-69
2022/10/19 05:21:32;;;;;;;13.40;2.22;;;10.10;99.90;;;;;;6148272;23;20025;-68
2022/10/19 05:23:57;;;;;;;12.80;2.45;;;10.00;99.90;;;;;;6122582;23;20237;-68
2022/10/19 05:26:25;;;;;;;10.57;1.60;;;10.00;99.90;;;;;;6121843;23;20017;-68
2022/10/19 05:28:58;;;;;;;13.48;2.30;;;10.00;99.90;;;;;;6120549;23;20017;-68
2022/10/19 05:31:26;;;;;;;6.50;1.63;;;10.00;99.90;;;;;;6147826;23;20018;-70
2022/10/19 05:33:52;;;;;;;12.27;2.00;;;10.10;99.90;;;;;;6148656;23;20068;-72
2022/10/19 05:36:26;;;;;;;11.43;2.03;;;10.10;99.90;;;;;;6120959;23;20022;-72
2022/10/19 05:38:54;;;;;;;12.27;2.42;;;10.20;99.90;;;;;;6121217;23;20509;-71
2022/10/19 05:41:21;;;;;;;11.77;1.90;;;10.10;99.90;;;;;;6121433;23;20021;-71
2022/10/19 05:43:52;;;;;;;18.85;2.63;;;10.20;99.90;;;;;;6120165;23;20381;-71
2022/10/19 05:46:17;;;;;;;12.18;2.10;;;10.20;99.90;;;;;;6147195;23;20022;-72
2022/10/19 05:48:43;;;;;;;11.55;1.75;;;10.20;99.90;;;;;;6149913;23;20037;-72
2022/10/19 05:51:12;;;;;;;12.38;1.67;;;10.20;99.90;;;;;;6149469;23;20018;-71
2022/10/19 05:53:37;;;;;;;9.45;1.42;;;10.30;99.90;;;;;;6149417;23;20362;-71
2022/10/19 05:56:04;;;;;;;10.75;2.08;;;10.20;99.90;;;;;;6148203;23;20030;-72
2022/10/19 05:58:31;;;;;;;9.23;1.52;;;10.30;99.90;;;;;;6147059;23;20029;-71
2022/10/19 06:00:58;;;;;;;19.52;2.30;;;10.30;99.90;;;;;;6149036;23;20073;-72
2022/10/19 06:03:25;;;;;;;13.30;1.85;;;10.30;99.90;;;;;;6148265;23;20033;-72
2022/10/19 06:05:52;;;;;;;10.40;1.90;;;10.30;99.90;;;;;;6150358;23;20353;-71
2022/10/19 06:08:19;;;;;;;12.40;1.80;;;10.30;99.90;;;;;;6149564;23;20037;-71
2022/10/19 06:10:46;;;;;;;8.43;1.67;;;10.30;99.90;;;;;;6121415;23;20193;-72
2022/10/19 06:13:12;;;;;;;11.18;1.90;;;10.30;99.90;;;;;;6147216;23;20030;-72
2022/10/19 06:15:41;;;;;;;7.80;1.50;;;10.30;99.90;;;;;;6147377;23;20017;-72
2022/10/19 06:18:11;;;;;;;9.02;1.73;;;10.30;99.90;;;;;;6147867;23;20445;-72
2022/10/19 06:20:39;;;;;;;10.27;1.70;;;10.30;99.90;;;;;;6143957;23;20021;-72
2022/10/19 06:23:05;;;;;;;14.05;2.30;;;10.30;99.90;;;;;;6149084;23;20333;-72
2022/10/19 06:25:32;;;;;;;11.65;1.73;;;10.30;99.90;;;;;;6150253;23;20052;-72
2022/10/19 06:27:58;;;;;;;10.20;1.75;;;10.20;99.90;;;;;;6149164;23;20578;-70
2022/10/19 06:30:24;;;;;;;12.32;2.33;;;10.20;99.90;;;;;;6120572;23;20025;-72
2022/10/19 06:32:50;;;;;;;12.52;1.77;;;10.20;99.90;;;;;;6149616;23;20029;-71
2022/10/19 06:35:16;;;;;;;13.40;1.92;;;10.20;99.90;;;;;;6148037;23;20021;-72
2022/10/19 06:37:42;;;;;;;9.57;2.08;;;10.20;99.90;;;;;;6150573;23;20025;-72
2022/10/19 06:40:09;;;;;;;8.60;1.67;;;10.20;99.90;;;;;;6148420;23;20156;-72
2022/10/19 06:42:38;;;;;;;8.00;2.03;;;10.20;99.90;;;;;;6145301;23;20304;-71
2022/10/19 06:45:06;;;;;;;12.57;1.75;;;10.20;99.90;;;;;;6147977;23;20090;-72
2022/10/19 06:47:33;;;;;;;18.05;2.88;;;10.30;99.90;;;;;;6147745;23;20021;-71
2022/10/19 06:49:59;;;;;;;10.23;1.58;;;10.30;99.90;;;;;;6150454;23;20057;-72
2022/10/19 06:52:25;;;;;;;9.98;2.45;;;10.30;99.90;;;;;;6122995;23;20048;-72
2022/10/19 06:54:51;;;;;;;12.55;2.55;;;10.40;99.90;;;;;;6149330;23;20017;-70
2022/10/19 06:57:16;;;;;;;11.07;2.40;;;10.30;99.90;;;;;;6119938;23;20132;-71
2022/10/19 06:59:42;;;;;;;12.60;2.13;;;10.40;99.90;;;;;;6146418;23;20027;-72
2022/10/19 07:02:10;;;;;;;10.50;2.08;;;10.40;99.90;;;;;;6121186;23;20032;-71
2022/10/19 07:04:36;;;;;;;13.13;2.08;;;10.50;99.90;;;;;;6145141;23;20343;-71
2022/10/19 07:07:02;;;;;;;12.25;2.25;;;10.40;99.90;;;;;;6143803;23;20071;-71
2022/10/19 07:09:27;;;;;;;11.60;2.20;;;10.50;99.90;;;;;;6145011;23;20053;-72
2022/10/19 07:11:56;;;;;;;10.05;1.67;;;10.50;99.90;;;;;;6130320;23;20029;-71
2022/10/19 07:14:27;;;;;;;14.60;2.72;;;10.50;99.90;;;;;;6146796;23;20022;-71
2022/10/19 07:16:53;;;;;;;11.00;1.70;;;10.60;99.90;;;;;;6122393;23;20041;-71
2022/10/19 07:19:20;;;;;;;12.98;1.98;;;10.60;99.90;;;;;;6148307;23;20096;-72
2022/10/19 07:21:52;;;;;;;12.82;1.80;;;10.70;99.90;;;;;;6149274;23;20027;-72
2022/10/19 07:24:18;;;;;;;13.35;2.60;;;10.60;99.90;;;;;;6149131;23;20095;-72
2022/10/19 07:26:44;;;;;;;10.82;2.00;;;10.70;99.90;;;;;;6140792;23;20047;-72
2022/10/19 07:29:10;;;;;;;11.93;1.70;;;10.80;99.90;;;;;;6143754;23;20113;-72
2022/10/19 07:31:35;;;;;;;9.57;2.00;;;10.80;99.90;;;;;;6143938;23;20458;-72
2022/10/19 07:34:03;;;;;;;9.00;1.88;;;10.90;99.90;;;;;;6116393;23;20231;-72
2022/10/19 07:36:33;;;;;;;10.65;1.80;;;10.90;99.90;;;;;;6150725;23;20018;-72
2022/10/19 07:39:04;;;;;;;11.45;2.08;;;10.90;99.90;;;;;;6147953;23;20037;-72
2022/10/19 07:41:30;;;;;;;11.52;1.85;;;11.00;99.90;;;;;;6137327;23;20022;-70
2022/10/19 07:43:56;;;;;;;8.88;1.90;;;11.00;99.90;;;;;;6146065;23;20044;-71
2022/10/19 07:46:35;;;;;;;12.20;1.90;;;11.20;99.90;;;;;;6148604;23;20021;-71
2022/10/19 07:49:02;;;;;;;13.55;2.40;;;11.20;99.90;;;;;;6148961;23;20021;-72
2022/10/19 07:51:28;;;;;;;14.45;1.88;;;11.30;99.90;;;;;;6121992;23;20033;-71
2022/10/19 07:53:57;;;;;;;11.80;2.47;;;11.30;99.90;;;;;;6149738;23;20080;-71
2022/10/19 07:56:26;;;;;;;10.70;2.10;;;11.40;99.90;;;;;;6148388;23;20045;-72
2022/10/19 07:58:57;;;;;;;8.02;1.60;;;11.40;99.90;;;;;;6122769;23;20024;-72
2022/10/19 08:01:26;;;;;;;10.55;2.40;;;11.50;99.90;;;;;;6146231;23;20025;-71
2022/10/19 08:03:53;;;;;;;11.25;2.58;;;11.50;99.90;;;;;;6123369;23;20107;-71
2022/10/19 08:06:19;;;;;;;11.48;2.22;;;11.60;99.90;;;;;;6133836;23;20129;-71
2022/10/19 08:08:46;;;;;;;7.32;2.35;;;11.60;99.90;;;;;;6121279;23;20013;-71
2022/10/19 08:11:18;;;;;;;13.82;2.00;;;11.70;99.90;;;;;;6148664;23;20462;-71
2022/10/19 08:13:47;;;;;;;14.82;2.30;;;11.80;99.90;;;;;;6148990;23;20009;-72
2022/10/19 08:16:27;;;;;;;13.20;2.38;;;11.80;99.90;;;;;;6146240;23;20053;-72
2022/10/19 08:18:57;;;;;;;11.40;2.42;;;11.80;99.90;;;;;;6133801;23;20153;-70
2022/10/19 08:21:24;;;;;;;15.07;2.00;;;11.90;99.90;;;;;;6148905;23;20029;-72
2022/10/19 08:23:49;;;;;;;12.73;1.85;;;11.90;99.90;;;;;;6123533;23;20079;-71
2022/10/19 08:26:15;;;;;;;14.15;2.25;;;12.00;99.90;;;;;;6118805;23;20054;-72
2022/10/19 08:28:44;;;;;;;12.50;2.35;;;12.00;99.90;;;;;;6134244;23;20021;-71
2022/10/19 08:31:22;;;;;;;10.55;2.20;;;12.00;99.90;;;;;;6145022;23;20268;-72
2022/10/19 08:33:49;;;;;;;10.75;2.42;;;12.10;99.90;;;;;;6148212;23;20469;-72
2022/10/19 08:36:15;;;;;;;10.45;1.73;;;12.10;99.90;;;;;;6147147;23;20028;-71
2022/10/19 08:38:43;;;;;;;9.43;1.67;;;12.10;99.90;;;;;;6134991;23;20026;-72
2022/10/19 08:41:39;;;;;;;11.98;1.90;;;12.20;99.90;;;;;;6147339;23;20029;-72
2022/10/19 08:44:35;;;;;;;10.05;1.50;;;12.20;99.90;;;;;;6134181;23;20044;-72
2022/10/19 08:47:27;;;;;;;12.15;2.13;;;12.30;99.90;;;;;;6143829;23;20081;-71
2022/10/19 08:49:55;;;;;;;5.63;1.50;;;12.30;99.90;;;;;;6120833;23;20096;-71
2022/10/19 08:52:26;;;;;;;11.25;2.05;;;12.30;99.90;;;;;;6145994;23;20092;-71
2022/10/19 08:54:54;;;;;;;10.40;1.70;;;12.40;99.90;;;;;;6147773;23;20030;-70
2022/10/19 08:57:35;;;;;;;7.45;1.90;;;12.40;99.90;;;;;;6146597;23;20032;-71
2022/10/19 09:00:19;;;;;;;11.27;1.92;;;12.40;99.90;;;;;;6146030;23;20030;-72
2022/10/19 09:03:07;;;;;;;10.52;1.80;;;12.50;99.90;;;;;;6134723;23;20021;-72
2022/10/19 09:05:46;;;;;;;10.40;1.58;;;12.50;99.90;;;;;;6144807;23;20013;-71
2022/10/19 09:08:12;;;;;;;15.60;1.77;;;12.50;99.90;;;;;;6116864;23;20048;-71
2022/10/19 09:10:44;;;;;;;11.95;1.75;;;12.50;99.90;;;;;;6146281;23;20029;-72
2022/10/19 09:13:35;;;;;;;8.52;2.22;;;12.50;99.90;;;;;;6145483;23;20065;-72
2022/10/19 09:16:03;;;;;;;10.13;1.80;;;12.40;99.90;;;;;;6118795;23;20026;-72
2022/10/19 09:18:31;;;;;;;9.05;2.13;;;12.40;99.90;;;;;;6147376;23;20040;-71
2022/10/19 09:21:12;;;;;;;9.25;1.63;;;12.50;99.90;;;;;;6144447;23;20076;-72
2022/10/19 09:23:51;;;;;;;7.20;1.70;;;12.50;99.90;;;;;;6122578;23;20382;-71
2022/10/19 09:26:20;;;;;;;12.20;1.80;;;12.40;99.90;;;;;;6146680;23;20017;-71
2022/10/19 09:28:57;;;;;;;8.95;2.10;;;12.50;99.90;;;;;;6147344;23;20393;-71
2022/10/19 09:31:42;;;;;;;12.25;2.47;;;12.50;99.90;;;;;;6147363;23;20504;-71
2022/10/19 09:34:39;;;;;;;5.72;1.80;;;12.50;99.90;;;;;;6147322;23;20105;-72
2022/10/19 09:37:05;;;;;;;8.45;1.70;;;12.60;99.90;;;;;;6122028;23;20057;-71
2022/10/19 09:39:31;;;;;;;10.32;1.42;;;12.60;99.90;;;;;;6147580;23;20036;-71
2022/10/19 09:42:24;;;;;;;8.38;1.65;;;12.60;99.90;;;;;;6122267;23;20026;-71
2022/10/19 09:44:53;;;;;;;7.72;1.98;;;12.60;99.90;;;;;;6148206;23;20093;-70
2022/10/19 09:47:32;;;;;;;9.82;1.50;;;12.60;99.90;;;;;;6146526;23;20414;-71
2022/10/19 09:50:33;;;;;;;16.73;1.75;;;12.60;99.90;;;;;;6145055;23;20036;-71
2022/10/19 09:53:03;;;;;;;9.05;1.60;;;12.60;99.90;;;;;;6027542;23;20035;-70
2022/10/19 09:55:42;;;;;;;7.65;1.67;;;12.60;99.90;;;;;;6123567;23;20024;-71
2022/10/19 09:58:13;;;;;;;10.35;2.05;;;12.60;99.90;;;;;;6144614;23;20026;-72
2022/10/19 10:00:44;;;;;;;13.00;2.72;;;12.70;99.90;;;;;;6118610;23;20022;-72
2022/10/19 10:03:30;;;;;;;12.63;2.22;;;12.80;99.90;;;;;;6147563;23;20096;-72
2022/10/19 10:06:00;;;;;;;12.32;2.13;;;12.80;99.90;;;;;;6147489;23;20046;-72
2022/10/19 10:08:30;;;;;;;15.13;2.22;;;12.80;99.90;;;;;;6147321;23;20323;-71
2022/10/19 10:11:12;;;;;;;7.10;1.70;;;12.90;99.90;;;;;;6146475;23;20482;-72
2022/10/19 10:13:41;;;;;;;10.27;2.22;;;12.90;99.90;;;;;;6120816;23;20017;-72
2022/10/19 10:16:15;;;;;;;8.10;1.77;;;12.90;99.90;;;;;;6147144;23;20033;-73
2022/10/19 10:19:02;;;;;;;10.57;1.65;;;13.00;99.90;;;;;;6145507;23;20511;-71
2022/10/19 10:21:48;;;;;;;12.95;2.25;;;13.00;99.90;;;;;;6146097;23;20584;-73
2022/10/19 10:24:15;;;;;;;13.73;2.00;;;13.00;99.90;;;;;;6102860;23;20022;-71
2022/10/19 10:26:55;;;;;;;8.63;1.67;;;13.00;99.90;;;;;;6147497;23;20076;-71
2022/10/19 10:29:29;;;;;;;8.23;1.67;;;13.00;99.90;;;;;;6118749;23;20233;-71
2022/10/19 10:32:04;;;;;;;11.73;1.88;;;13.00;99.90;;;;;;6145545;23;20021;-71
2022/10/19 10:34:42;;;;;;;7.53;1.85;;;13.00;99.90;;;;;;6106833;23;20041;-71
2022/10/19 10:37:20;;;;;;;8.85;1.92;;;13.00;99.90;;;;;;6147581;23;20335;-72
2022/10/19 10:39:54;;;;;;;8.75;1.50;;;13.10;99.90;;;;;;6147121;23;20024;-74
2022/10/19 10:42:37;;;;;;;14.35;1.92;;;13.10;99.90;;;;;;6149576;23;20014;-71
2022/10/19 10:45:03;;;;;;;13.25;2.25;;;13.10;99.90;;;;;;6142375;23;20093;-72
2022/10/19 10:47:30;;;;;;;14.40;2.10;;;13.10;99.90;;;;;;6147505;23;20029;-73
2022/10/19 10:49:59;;;;;;;6.15;1.23;;;13.00;99.90;;;;;;6148826;23;20032;-73
2022/10/19 10:52:27;;;;;;;7.47;1.60;;;13.10;99.90;;;;;;6144959;23;20052;-72
2022/10/19 10:55:15;;;;;;;8.57;2.08;;;13.10;99.90;;;;;;6143023;23;20021;-71
2022/10/19 10:57:45;;;;;;;9.88;1.67;;;13.00;99.90;;;;;;6145309;23;20014;-71
2022/10/19 11:00:14;;;;;;;9.73;1.80;;;13.00;99.90;;;;;;6144517;23;20540;-72
2022/10/19 11:03:28;;;;;;;13.55;2.05;;;13.00;99.90;;;;;;6123287;23;20021;-71
2022/10/19 11:06:01;;;;;;;5.35;1.35;;;13.00;99.90;;;;;;6079427;23;20437;-72
2022/10/19 11:08:56;;;;;;;11.50;2.15;;;13.10;99.90;;;;;;6142962;23;20017;-72
2022/10/19 11:11:34;;;;;;;9.77;1.73;;;13.10;99.90;;;;;;6132973;23;20485;-71
2022/10/19 11:14:07;;;;;;;8.35;1.70;;;13.20;99.90;;;;;;6146985;23;20033;-72
2022/10/19 11:16:40;;;;;;;11.80;2.08;;;13.20;99.90;;;;;;6121520;23;20030;-72
2022/10/19 11:19:21;;;;;;;8.13;1.90;;;13.30;99.90;;;;;;6122339;23;20501;-71
2022/10/19 11:22:05;;;;;;;8.25;2.72;;;13.30;99.90;;;;;;6148160;23;20014;-72
2022/10/19 11:24:56;;;;;;;8.13;1.48;;;13.40;99.90;;;;;;6149765;23;20502;-72
2022/10/19 11:27:49;;;;;;;8.10;1.45;;;13.40;99.90;;;;;;6144391;23;20084;-72
2022/10/19 11:30:20;;;;;;;10.15;1.50;;;13.40;99.90;;;;;;6147747;23;20089;-72
2022/10/19 11:33:04;;;;;;;6.93;1.33;;;13.40;99.90;;;;;;6149946;23;20033;-71
2022/10/19 11:35:55;;;;;;;6.13;1.85;;;13.40;99.90;;;;;;6148267;23;20599;-71
2022/10/19 11:38:37;;;;;;;11.27;1.60;;;13.60;99.90;;;;;;6145470;23;20169;-72
2022/10/19 11:41:17;;;;;;;8.10;1.88;;;13.60;99.90;;;;;;6146386;23;20029;-72
2022/10/19 11:44:08;;;;;;;11.30;2.15;;;13.60;99.90;;;;;;6148937;23;20021;-72
2022/10/19 11:46:48;;;;;;;7.32;2.03;;;13.40;99.90;;;;;;6147416;23;20053;-72
2022/10/19 11:49:17;;;;;;;11.02;1.90;;;13.30;99.90;;;;;;6122456;23;20018;-72
2022/10/19 11:51:47;;;;;;;7.63;1.25;;;13.30;99.90;;;;;;6149021;23;20022;-70
2022/10/19 11:54:23;;;;;;;5.45;1.50;;;13.30;99.90;;;;;;6122160;23;20028;-71
2022/10/19 11:57:02;;;;;;;10.65;1.60;;;13.30;99.90;;;;;;6147032;23;20040;-70
2022/10/19 12:00:04;;;;;;;12.80;1.67;;;13.50;99.90;;;;;;6148160;23;20040;-71
2022/10/19 12:02:55;;;;;;;8.90;1.33;;;13.60;99.90;;;;;;6146678;23;20080;-70
2022/10/19 12:05:28;;;;;;;9.43;1.50;;;13.80;99.90;;;;;;6148123;23;20045;-71
2022/10/19 12:08:02;;;;;;;;;;;13.90;99.90;;;;;;6135833;23;20029;-72
2022/10/19 12:10:33;;;;;;;10.40;1.75;;;13.90;99.90;;;;;;6144628;23;19923;-70
2022/10/19 12:13:04;;;;;;;10.73;1.90;;;13.80;99.90;;;;;;6147872;23;20025;-70
2022/10/19 12:15:36;;;;;;;9.13;1.63;;;13.80;99.90;;;;;;6147543;23;20052;-72
2022/10/19 12:18:21;;;;;;;6.80;1.58;;;13.80;99.90;;;;;;6146133;23;20051;-73
2022/10/19 12:20:50;;;;;;;6.63;1.50;;;13.90;99.90;;;;;;6123029;23;20076;-71
2022/10/19 12:23:20;;;;;;;11.63;1.90;;;14.00;99.90;;;;;;6147754;23;20512;-71
2022/10/19 12:25:47;;;;;;;5.05;1.42;;;14.00;99.90;;;;;;6148619;23;20024;-70
2022/10/19 12:28:35;;;;;;;10.07;1.20;;;14.20;99.90;;;;;;6147179;23;20462;-72
2022/10/19 12:31:03;;;;;;;11.90;2.40;;;14.40;99.90;;;;;;6141507;23;20100;-72
2022/10/19 12:33:52;;;;;;;7.28;1.40;;;14.50;99.90;;;;;;6147137;23;20139;-72
2022/10/19 12:36:39;;;;;;;10.32;1.63;;;14.50;99.90;;;;;;6146703;23;20030;-71
2022/10/19 12:39:28;;;;;;;7.47;1.50;;;14.60;99.90;;;;;;6145958;23;20096;-70
2022/10/19 12:42:25;;;;;;;9.52;2.22;;;14.60;99.90;;;;;;6149389;23;20044;-71
2022/10/19 12:44:59;;;;;;;8.77;1.80;;;14.60;99.90;;;;;;6146645;23;20022;-71
2022/10/19 12:47:28;;;;;;;8.10;1.60;;;14.50;99.90;;;;;;6146606;23;20045;-70
2022/10/19 12:49:57;;;;;;;5.63;1.25;;;14.30;99.90;;;;;;6148780;23;20025;-71
2022/10/19 12:52:38;;;;;;;8.20;1.98;;;14.10;99.90;;;;;;6147068;23;20346;-70
2022/10/19 12:55:33;;;;;;;8.38;1.83;;;14.00;99.90;;;;;;6121916;23;20035;-72
2022/10/19 12:58:05;;;;;;;8.02;2.13;;;13.80;99.90;;;;;;6148475;23;20036;-71
2022/10/19 13:00:35;;;;;;;11.10;2.30;;;13.80;99.90;;;;;;6146369;23;20113;-71
2022/10/19 13:03:05;;;;;;;10.00;1.80;;;13.80;99.90;;;;;;6149486;23;20063;-70
2022/10/19 13:05:32;;;;;;;11.48;1.90;;;13.90;99.90;;;;;;6146989;23;20025;-71
2022/10/19 13:08:02;;;;;;;5.85;1.30;;;14.00;99.90;;;;;;6121473;23;20029;-71